Villaverde del Rio, Spain
Current Conditions -  °F | °C
As of 3:00 PM on Monday 20 Oct 2014 (Local Time) from LEZL Reporting Station
Clear Clear  
Wind Chill: 84°   Ceiling: Unl
Heat Index: 84°   Visibility: 6mi
Dew Point: 54°   Wind: 8mph
Humidity: 35%   Direction: 20°NNE
Pressure: 30.03"   Gusts: NA
Location:  37.59°N, 5.87°W
Report Text: LEZL 201300Z 02007KT 360V060 CAVOK 29/12 Q1017 NOSIG
Loading
Personal Weather Stations






























Interactive Weather Map
Tropical Storm Tracking
New forecast layout! Learn more

10-Day Weather Forecast

Advertisements
Track Severe Weather on mobile